Philadelphia, Pennsylvania
Traffic Map
Current Weather Conditions
Philadelphia, Pennsylvania
Overcast
Overcast
77°
Feels Like: 79°
Wind Chill: 77° Ceiling: 18000
Heat Index: 79° Visibility: 10mi
Dew Point: 66° Wind: 9mph
Humidity: 69% Direction: 230° (SW)
Pressure: 30.05in Gusts: 0mph
Raw Report DataKPHL 310854Z 23008KT 10SM SCT090 OVC180 25/19 A3005 RMK AO2 RAB20E29 SLP176 P0000 60000 T02500189 55002
Traffic Incident Summary
Active as of:
Severity:
Category:
InformationThere was an issue retrieving the traffic information for this location. Please try a different location or try again shortly.
Advertisements
Track Severe Weather on mobile